This is the latest recevied weather packets stored in our database for station/object KK4KTV-13. If no packets are shown the sender has not sent any weather packets the latest 10 day(s).
| Time | Temp. | Humidity | Pressure | Rain* | Wind** | Luminosity | Snow |
|---|---|---|---|---|---|---|---|
| 1777157546 | 23.89° C | 55% | 1008.6 hPa | 0 mm | - | 105 W/m² | - |
| 1777157243 | 23.89° C | 55% | 1008.6 hPa | 0 mm | - | 121 W/m² | - |
| 1777156942 | 23.89° C | 54% | 1008.7 hPa | 0 mm | - | 135 W/m² | - |
| 1777156637 | 24.44° C | 54% | 1008.7 hPa | 0 mm | - | 142 W/m² | - |
| 1777156334 | 24.44° C | 54% | 1008.5 hPa | 0 mm | - | 198 W/m² | - |
| 1777156030 | 23.89° C | 54% | 1008.7 hPa | 0 mm | - | 206 W/m² | - |
| 1777155727 | 23.89° C | 55% | 1008.5 hPa | 0 mm | - | 191 W/m² | - |
| 1777155423 | 24.44° C | 52% | 1008.5 hPa | 0 mm | - | 158 W/m² | - |
| 1777155120 | 24.44° C | 52% | 1008.4 hPa | 0 mm | - | 236 W/m² | - |
| 1777154817 | 24.44° C | 53% | 1008.6 hPa | 0 mm | - | 244 W/m² | - |
| 1777154514 | 23.89° C | 54% | 1008.5 hPa | 0 mm | - | 248 W/m² | - |
| 1777154209 | 23.33° C | 53% | 1008.5 hPa | 0 mm | - | 260 W/m² | - |
| 1777153905 | 23.33° C | 55% | 1008.6 hPa | 0 mm | - | 86 W/m² | - |
| 1777153602 | 23.89° C | 54% | 1008.4 hPa | 0 mm | - | 296 W/m² | - |
| 1777153297 | 25° C | 52% | 1008.4 hPa | 0 mm | - | 344 W/m² | - |
| 1777152994 | 24.44° C | 53% | 1008.3 hPa | 0 mm | - | 385 W/m² | - |
| 1777152691 | 23.89° C | 55% | 1008.6 hPa | 0 mm | - | 368 W/m² | - |
| 1777152387 | 23.89° C | 54% | 1008.5 hPa | 0 mm | - | 113 W/m² | - |
| 1777152083 | 25° C | 53% | 1008.3 hPa | 0 mm | - | 381 W/m² | - |
| 1777151779 | 24.44° C | 55% | 1008.5 hPa | 0 mm | - | 407 W/m² | - |
| 1777151475 | 23.89° C | 56% | 1008.5 hPa | 0 mm | - | 405 W/m² | - |
| 1777151172 | 23.33° C | 57% | 1008.4 hPa | 0 mm | - | 446 W/m² | - |
| 1777150871 | 22.78° C | 57% | 1008.7 hPa | 0 mm | - | 137 W/m² | - |
| 1777150567 | 23.89° C | 56% | 1008.6 hPa | 0 mm | - | 102 W/m² | - |
| 1777150263 | 23.33° C | 57% | 1008.7 hPa | 0 mm | - | 489 W/m² | - |
* Rain latest hour (hover to see other rain measurements)
** Current wind speed in m/s (hover to see current wind gust speed)